Time;durP1;ratioP1;P1;durP2;ratioP2;P2;SDS_P1;SDS_P2;PMS_P1;PMS_P2;Temp;Humidity;BMP_temperature;BMP_pressure;BME280_temperature;BME280_humidity;BME280_pressure;Samples;Min_cycle;Max_cycle;Signal;HPM_P1;HPM_P2
2023/05/23 00:01:41;;;;;;;18.65;12.73;;;;;;;;;;5023639;28;20574;-74
2023/05/23 00:04:08;;;;;;;20.80;14.15;;;;;;;;;;5026728;28;20740;-66
2023/05/23 00:06:34;;;;;;;22.02;13.85;;;;;;;;;;5028318;28;20209;-73
2023/05/23 00:09:00;;;;;;;21.00;13.55;;;;;;;;;;5022424;28;20244;-74
2023/05/23 00:11:27;;;;;;;24.55;15.23;;;;;;;;;;5024760;28;20463;-72
2023/05/23 00:13:53;;;;;;;24.13;16.08;;;;;;;;;;5029896;28;20192;-74
2023/05/23 00:16:20;;;;;;;22.42;15.05;;;;;;;;;;5028733;28;20437;-71
2023/05/23 00:18:45;;;;;;;27.08;16.50;;;;;;;;;;5027489;28;20552;-73
2023/05/23 00:21:12;;;;;;;28.40;16.30;;;;;;;;;;5028308;28;20182;-73
2023/05/23 00:23:41;;;;;;;30.83;17.63;;;;;;;;;;5024179;28;20201;-74
2023/05/23 00:26:07;;;;;;;27.35;16.65;;;;;;;;;;5025899;28;20206;-75
2023/05/23 00:28:32;;;;;;;28.10;17.13;;;;;;;;;;5037699;28;20205;-75
2023/05/23 00:30:57;;;;;;;26.63;16.08;;;;;;;;;;5030054;28;20198;-73
2023/05/23 00:33:23;;;;;;;30.65;16.95;;;;;;;;;;5024571;28;20558;-74
2023/05/23 00:35:48;;;;;;;26.27;16.98;;;;;;;;;;5022116;28;20251;-75
2023/05/23 00:38:13;;;;;;;27.45;17.73;;;;;;;;;;5028950;28;20218;-75
2023/05/23 00:40:39;;;;;;;27.20;16.20;;;;;;;;;;5024870;28;20283;-71
2023/05/23 00:43:05;;;;;;;28.38;17.15;;;;;;;;;;5039927;28;20191;-74
2023/05/23 00:45:30;;;;;;;26.85;18.17;;;;;;;;;;5029954;28;20300;-70
2023/05/23 00:47:57;;;;;;;30.70;18.85;;;;;;;;;;5016790;28;20277;-71
2023/05/23 00:50:24;;;;;;;27.92;18.20;;;;;;;;;;5034436;28;20186;-74
2023/05/23 00:52:49;;;;;;;29.10;17.73;;;;;;;;;;5029114;28;20194;-73
2023/05/23 00:55:15;;;;;;;30.27;18.25;;;;;;;;;;5017678;28;20198;-71
2023/05/23 00:57:43;;;;;;;29.08;19.27;;;;;;;;;;5030717;28;20190;-74
2023/05/23 01:00:09;;;;;;;30.85;18.17;;;;;;;;;;5025189;28;20700;-71
2023/05/23 01:02:42;;;;;;;29.10;19.75;;;;;;;;;;5020014;28;20190;-74
2023/05/23 01:05:08;;;;;;;28.25;17.95;;;;;;;;;;5027311;28;20210;-75
2023/05/23 01:07:34;;;;;;;25.67;17.42;;;;;;;;;;5044979;28;20221;-73
2023/05/23 01:10:00;;;;;;;21.58;15.52;;;;;;;;;;5029643;28;20183;-71
2023/05/23 01:12:30;;;;;;;22.50;15.70;;;;;;;;;;5032204;28;20324;-74
2023/05/23 01:15:02;;;;;;;25.80;16.42;;;;;;;;;;5029163;28;20186;-74
2023/05/23 01:18:08;;;;;;;20.17;13.30;;;;;;;;;;5017874;28;20263;-73
2023/05/23 01:20:38;;;;;;;24.73;14.60;;;;;;;;;;5020793;28;20290;-74
2023/05/23 01:23:22;;;;;;;26.92;14.38;;;;;;;;;;5025797;28;20297;-74
2023/05/23 01:26:13;;;;;;;26.60;14.35;;;;;;;;;;5025677;28;20682;-75
2023/05/23 01:28:47;;;;;;;27.70;15.05;;;;;;;;;;5015364;28;20715;-74
2023/05/23 01:31:15;;;;;;;24.95;13.38;;;;;;;;;;5025800;28;20186;-75
2023/05/23 01:33:42;;;;;;;23.85;13.45;;;;;;;;;;5025586;28;20201;-74
2023/05/23 01:36:08;;;;;;;23.92;14.57;;;;;;;;;;5007316;28;20194;-70
2023/05/23 01:38:33;;;;;;;25.88;14.57;;;;;;;;;;5026469;28;20666;-74
2023/05/23 01:40:59;;;;;;;26.75;14.63;;;;;;;;;;5030236;28;20194;-69
2023/05/23 01:43:24;;;;;;;26.20;14.68;;;;;;;;;;5035630;28;20233;-74
2023/05/23 01:45:52;;;;;;;27.67;14.98;;;;;;;;;;5022535;28;20221;-74
2023/05/23 01:48:19;;;;;;;30.00;15.35;;;;;;;;;;5029020;28;20198;-69
2023/05/23 01:50:45;;;;;;;28.73;14.75;;;;;;;;;;5048919;28;20192;-74
2023/05/23 01:53:12;;;;;;;32.10;15.75;;;;;;;;;;5033022;28;20197;-73
2023/05/23 01:55:40;;;;;;;25.60;15.63;;;;;;;;;;5027138;28;20178;-73
2023/05/23 01:58:05;;;;;;;29.67;14.98;;;;;;;;;;5032105;28;20173;-69
2023/05/23 02:00:31;;;;;;;31.80;15.20;;;;;;;;;;5038505;28;20201;-73
2023/05/23 02:02:56;;;;;;;27.98;15.45;;;;;;;;;;5035099;28;20186;-73
2023/05/23 02:05:22;;;;;;;26.27;14.82;;;;;;;;;;5021995;28;20232;-72
2023/05/23 02:07:47;;;;;;;26.05;14.90;;;;;;;;;;5028328;28;20198;-74
2023/05/23 02:10:12;;;;;;;25.25;13.85;;;;;;;;;;5023834;28;20665;-74
2023/05/23 02:12:38;;;;;;;26.58;14.82;;;;;;;;;;5026462;28;20457;-73
2023/05/23 02:15:04;;;;;;;23.02;13.00;;;;;;;;;;5035439;28;20665;-73
2023/05/23 02:17:29;;;;;;;23.90;13.60;;;;;;;;;;5019537;28;20273;-74
2023/05/23 02:19:55;;;;;;;24.08;14.27;;;;;;;;;;5025861;28;20339;-73
2023/05/23 02:22:26;;;;;;;24.75;14.65;;;;;;;;;;5025504;28;20253;-73
2023/05/23 02:24:52;;;;;;;24.30;14.65;;;;;;;;;;5023697;28;20270;-72
2023/05/23 02:27:18;;;;;;;28.17;13.88;;;;;;;;;;5009122;28;20241;-74
2023/05/23 02:29:43;;;;;;;31.15;16.90;;;;;;;;;;5016831;28;20276;-72
2023/05/23 02:32:08;;;;;;;30.15;15.60;;;;;;;;;;5009438;28;20478;-73
2023/05/23 02:34:34;;;;;;;30.38;16.40;;;;;;;;;;5023273;28;20197;-72
2023/05/23 02:36:59;;;;;;;34.00;17.98;;;;;;;;;;5026124;28;20186;-73
2023/05/23 02:39:26;;;;;;;31.55;16.63;;;;;;;;;;5027081;28;20252;-74
2023/05/23 02:41:51;;;;;;;31.45;15.63;;;;;;;;;;5040031;28;20189;-73
2023/05/23 02:44:18;;;;;;;37.83;17.30;;;;;;;;;;5041709;28;20201;-73
2023/05/23 02:46:46;;;;;;;33.65;17.27;;;;;;;;;;5033615;28;20241;-72
2023/05/23 02:49:12;;;;;;;32.28;16.98;;;;;;;;;;5039052;28;20190;-74
2023/05/23 02:51:37;;;;;;;38.33;17.23;;;;;;;;;;5031151;28;20265;-72
2023/05/23 02:54:02;;;;;;;30.75;16.90;;;;;;;;;;5031379;28;20192;-73
2023/05/23 02:56:28;;;;;;;30.85;16.85;;;;;;;;;;5030481;28;20194;-72
2023/05/23 02:58:53;;;;;;;31.13;16.23;;;;;;;;;;5039518;28;20235;-70
2023/05/23 03:01:19;;;;;;;42.38;16.38;;;;;;;;;;5047693;28;20217;-72
2023/05/23 03:03:44;;;;;;;36.63;17.25;;;;;;;;;;5038851;28;20194;-73
2023/05/23 03:06:13;;;;;;;29.50;16.00;;;;;;;;;;5047569;28;20279;-67
2023/05/23 03:08:42;;;;;;;28.27;14.63;;;;;;;;;;5032962;28;20513;-74
2023/05/23 03:11:08;;;;;;;30.08;15.82;;;;;;;;;;5021646;28;20241;-73
2023/05/23 03:13:34;;;;;;;27.13;14.85;;;;;;;;;;5029609;28;20187;-73
2023/05/23 03:15:59;;;;;;;28.15;14.88;;;;;;;;;;5040578;28;20205;-67
2023/05/23 03:18:25;;;;;;;30.88;15.40;;;;;;;;;;5045824;28;20662;-74
2023/05/23 03:20:50;;;;;;;23.92;14.07;;;;;;;;;;5030725;28;20197;-74
2023/05/23 03:23:15;;;;;;;26.02;14.43;;;;;;;;;;5028843;28;20349;-73
2023/05/23 03:25:42;;;;;;;31.30;15.15;;;;;;;;;;5025737;28;20211;-71
2023/05/23 03:28:07;;;;;;;23.90;14.30;;;;;;;;;;5029175;28;20181;-72
2023/05/23 03:30:33;;;;;;;27.27;15.13;;;;;;;;;;5029982;28;20192;-74
2023/05/23 03:32:58;;;;;;;24.63;14.55;;;;;;;;;;5018141;28;20198;-73
2023/05/23 03:35:23;;;;;;;27.17;14.30;;;;;;;;;;5026176;28;20209;-74
2023/05/23 03:37:49;;;;;;;26.65;14.20;;;;;;;;;;5028722;28;20197;-72
2023/05/23 03:40:14;;;;;;;24.63;14.45;;;;;;;;;;5023351;28;20689;-74
2023/05/23 03:42:40;;;;;;;32.33;14.93;;;;;;;;;;5031494;28;20206;-71
2023/05/23 03:45:05;;;;;;;25.63;14.85;;;;;;;;;;5029028;28;20216;-73
2023/05/23 03:47:31;;;;;;;34.05;15.75;;;;;;;;;;5044353;28;20232;-74
2023/05/23 03:49:56;;;;;;;29.35;15.88;;;;;;;;;;5034927;28;20188;-73
2023/05/23 03:52:22;;;;;;;27.65;13.88;;;;;;;;;;5028250;28;20191;-74
2023/05/23 03:54:47;;;;;;;27.08;13.98;;;;;;;;;;5029421;28;20198;-75
2023/05/23 03:57:13;;;;;;;25.05;13.48;;;;;;;;;;5010639;28;20635;-73
2023/05/23 03:59:38;;;;;;;29.85;14.65;;;;;;;;;;5029027;28;20197;-73
2023/05/23 04:02:04;;;;;;;34.80;15.40;;;;;;;;;;5031218;28;20233;-74
2023/05/23 04:04:30;;;;;;;32.75;15.82;;;;;;;;;;5033833;28;20191;-74
2023/05/23 04:06:57;;;;;;;34.97;15.15;;;;;;;;;;5030968;28;20499;-73
2023/05/23 04:09:22;;;;;;;36.03;15.10;;;;;;;;;;5029359;28;20187;-72
2023/05/23 04:11:47;;;;;;;30.50;14.27;;;;;;;;;;5018053;28;20209;-73
2023/05/23 04:14:13;;;;;;;33.08;15.35;;;;;;;;;;5020338;28;20255;-72
2023/05/23 04:16:40;;;;;;;31.90;14.30;;;;;;;;;;5045607;28;20277;-74
2023/05/23 04:19:06;;;;;;;34.20;14.50;;;;;;;;;;5029090;28;20217;-73
2023/05/23 04:21:32;;;;;;;35.05;14.05;;;;;;;;;;5024457;28;20217;-72
2023/05/23 04:23:58;;;;;;;31.58;12.82;;;;;;;;;;5028788;28;20271;-70
2023/05/23 04:26:24;;;;;;;27.05;12.95;;;;;;;;;;5022768;28;20625;-72
2023/05/23 04:28:53;;;;;;;26.40;12.82;;;;;;;;;;5033040;28;20198;-73
2023/05/23 04:31:18;;;;;;;26.80;12.80;;;;;;;;;;5030277;28;20661;-73
2023/05/23 04:33:44;;;;;;;32.17;12.38;;;;;;;;;;5027220;28;20241;-74
2023/05/23 04:36:10;;;;;;;27.70;12.18;;;;;;;;;;5022884;28;20643;-74
2023/05/23 04:38:37;;;;;;;27.58;11.63;;;;;;;;;;5025568;28;20291;-69
2023/05/23 04:41:04;;;;;;;26.52;11.02;;;;;;;;;;5031400;28;20182;-72
2023/05/23 04:43:32;;;;;;;21.83;11.13;;;;;;;;;;5027850;28;20190;-72
2023/05/23 04:45:58;;;;;;;22.35;10.90;;;;;;;;;;5027658;28;20241;-74
2023/05/23 04:48:23;;;;;;;24.50;11.02;;;;;;;;;;5048024;28;20225;-74
2023/05/23 04:50:50;;;;;;;24.25;11.43;;;;;;;;;;5022889;28;20693;-67
2023/05/23 04:53:15;;;;;;;24.10;10.20;;;;;;;;;;5032002;28;20310;-75
2023/05/23 04:55:40;;;;;;;26.58;11.15;;;;;;;;;;5026826;28;20273;-72
2023/05/23 04:58:06;;;;;;;22.08;11.00;;;;;;;;;;5024851;28;20186;-73
2023/05/23 05:00:32;;;;;;;26.15;11.00;;;;;;;;;;5021880;28;20233;-74
2023/05/23 05:02:57;;;;;;;23.35;10.38;;;;;;;;;;5027198;28;20268;-73
2023/05/23 05:05:23;;;;;;;27.67;10.10;;;;;;;;;;5032941;28;20194;-72
2023/05/23 05:07:48;;;;;;;26.67;10.23;;;;;;;;;;5026813;28;20337;-72
2023/05/23 05:10:15;;;;;;;24.00;9.95;;;;;;;;;;5029107;28;20186;-73
2023/05/23 05:12:45;;;;;;;19.55;9.38;;;;;;;;;;5027309;28;20271;-73
2023/05/23 05:15:11;;;;;;;22.00;9.43;;;;;;;;;;5035068;28;20189;-67
2023/05/23 05:17:37;;;;;;;27.00;9.45;;;;;;;;;;5018721;28;20187;-69
2023/05/23 05:20:07;;;;;;;22.30;9.30;;;;;;;;;;5025087;28;20688;-72
2023/05/23 05:22:34;;;;;;;26.13;9.18;;;;;;;;;;5027914;28;21000;-73
2023/05/23 05:25:00;;;;;;;23.52;9.23;;;;;;;;;;5027614;28;20273;-74
2023/05/23 05:27:25;;;;;;;22.98;9.55;;;;;;;;;;5020720;28;20684;-75
2023/05/23 05:29:52;;;;;;;23.25;8.50;;;;;;;;;;5023191;28;20205;-75
2023/05/23 05:32:18;;;;;;;20.33;9.10;;;;;;;;;;5021688;28;20197;-74
2023/05/23 05:34:43;;;;;;;14.73;7.35;;;;;;;;;;5042138;28;20194;-71
2023/05/23 05:37:08;;;;;;;18.13;7.45;;;;;;;;;;5015182;28;20269;-75
2023/05/23 05:39:34;;;;;;;16.42;6.75;;;;;;;;;;5011764;28;20269;-70
2023/05/23 05:42:02;;;;;;;16.67;7.65;;;;;;;;;;5027392;28;20267;-74
2023/05/23 05:44:27;;;;;;;20.17;6.80;;;;;;;;;;5030690;28;20589;-74
2023/05/23 05:46:53;;;;;;;21.90;7.38;;;;;;;;;;5032350;28;20201;-74
2023/05/23 05:49:19;;;;;;;15.85;6.88;;;;;;;;;;5030276;28;20260;-73
2023/05/23 05:51:44;;;;;;;20.60;6.43;;;;;;;;;;5044100;28;20186;-74
2023/05/23 05:54:10;;;;;;;18.60;6.22;;;;;;;;;;5021321;28;20687;-75
2023/05/23 05:56:35;;;;;;;17.55;6.75;;;;;;;;;;5032273;28;20198;-74
2023/05/23 05:59:01;;;;;;;14.52;5.47;;;;;;;;;;5028052;28;20182;-74
2023/05/23 06:01:26;;;;;;;15.80;5.70;;;;;;;;;;5032678;28;20236;-70
2023/05/23 06:03:51;;;;;;;18.48;5.97;;;;;;;;;;5027328;28;20252;-73
2023/05/23 06:06:17;;;;;;;16.45;5.38;;;;;;;;;;5018869;28;20610;-76
2023/05/23 06:08:42;;;;;;;16.00;5.80;;;;;;;;;;5033781;28;20272;-70
2023/05/23 06:11:08;;;;;;;14.88;6.22;;;;;;;;;;5031260;28;20178;-73
2023/05/23 06:13:33;;;;;;;13.57;5.85;;;;;;;;;;5028077;28;20343;-74
2023/05/23 06:15:58;;;;;;;10.82;5.53;;;;;;;;;;5029762;28;20236;-72
2023/05/23 06:18:24;;;;;;;21.38;6.50;;;;;;;;;;5026507;28;20206;-70
2023/05/23 06:20:49;;;;;;;16.42;6.70;;;;;;;;;;5025825;28;20228;-75
2023/05/23 06:23:15;;;;;;;17.67;7.00;;;;;;;;;;5030495;28;20206;-76
2023/05/23 06:25:40;;;;;;;16.77;6.65;;;;;;;;;;5018868;28;20202;-73
2023/05/23 06:28:05;;;;;;;18.90;7.20;;;;;;;;;;5033556;28;20327;-73
2023/05/23 06:30:31;;;;;;;15.20;6.10;;;;;;;;;;5026705;28;20715;-75
2023/05/23 06:32:56;;;;;;;13.32;6.68;;;;;;;;;;5038975;28;20199;-73
2023/05/23 06:35:22;;;;;;;17.27;7.30;;;;;;;;;;5040933;28;20283;-73
2023/05/23 06:37:47;;;;;;;16.00;5.90;;;;;;;;;;5030865;28;20236;-68
2023/05/23 06:40:15;;;;;;;19.55;6.90;;;;;;;;;;5028134;28;20344;-72
2023/05/23 06:42:41;;;;;;;22.40;7.03;;;;;;;;;;5038813;28;20190;-73
2023/05/23 06:45:07;;;;;;;20.90;7.05;;;;;;;;;;5029641;28;20205;-70
2023/05/23 06:47:32;;;;;;;23.23;7.45;;;;;;;;;;5043327;28;20222;-71
2023/05/23 06:49:57;;;;;;;19.00;6.55;;;;;;;;;;5023242;28;20205;-71
2023/05/23 06:52:23;;;;;;;25.30;6.85;;;;;;;;;;5026681;28;20186;-74
2023/05/23 06:54:48;;;;;;;18.35;6.32;;;;;;;;;;5032692;28;20202;-74
2023/05/23 06:57:13;;;;;;;17.92;6.78;;;;;;;;;;5031220;28;20197;-73
2023/05/23 06:59:39;;;;;;;17.17;7.25;;;;;;;;;;5024813;28;20279;-73
2023/05/23 07:02:05;;;;;;;19.17;6.38;;;;;;;;;;5037451;28;20530;-74
2023/05/23 07:04:30;;;;;;;17.70;6.35;;;;;;;;;;5033962;28;20182;-73
2023/05/23 07:06:55;;;;;;;14.93;6.15;;;;;;;;;;5029815;28;20643;-73
2023/05/23 07:09:21;;;;;;;15.20;5.85;;;;;;;;;;5026862;28;20187;-75
2023/05/23 07:11:46;;;;;;;17.42;6.13;;;;;;;;;;5029526;28;20656;-73
2023/05/23 07:14:12;;;;;;;15.35;5.70;;;;;;;;;;5018052;28;20191;-74
2023/05/23 07:16:37;;;;;;;20.38;6.47;;;;;;;;;;5029249;28;20186;-72
2023/05/23 07:19:04;;;;;;;14.15;5.60;;;;;;;;;;5029871;28;20195;-74
2023/05/23 07:21:30;;;;;;;15.40;5.25;;;;;;;;;;5024931;28;20197;-74
2023/05/23 07:23:55;;;;;;;13.65;6.20;;;;;;;;;;5028863;28;20614;-73
2023/05/23 07:26:21;;;;;;;14.02;5.05;;;;;;;;;;5024474;28;20203;-74
2023/05/23 07:28:46;;;;;;;17.45;6.22;;;;;;;;;;5025226;28;20574;-74
2023/05/23 07:31:12;;;;;;;13.05;5.95;;;;;;;;;;5024373;28;20237;-70
2023/05/23 07:33:37;;;;;;;15.45;5.45;;;;;;;;;;5030162;28;20197;-73
2023/05/23 07:36:03;;;;;;;10.30;5.43;;;;;;;;;;5035732;28;20228;-72
2023/05/23 07:38:28;;;;;;;18.67;6.88;;;;;;;;;;5030866;28;20249;-74
2023/05/23 07:40:54;;;;;;;17.10;5.82;;;;;;;;;;5037380;28;20197;-73
2023/05/23 07:43:19;;;;;;;18.50;5.82;;;;;;;;;;5040435;28;20824;-70
2023/05/23 07:45:45;;;;;;;17.60;6.50;;;;;;;;;;5030844;28;20210;-75
2023/05/23 07:48:11;;;;;;;19.20;6.78;;;;;;;;;;5047302;28;20674;-72
2023/05/23 07:50:38;;;;;;;14.52;6.13;;;;;;;;;;5030310;28;20205;-72
2023/05/23 07:53:03;;;;;;;18.60;5.90;;;;;;;;;;5029364;28;20705;-73
2023/05/23 07:55:29;;;;;;;14.80;5.50;;;;;;;;;;5028190;28;20200;-73
2023/05/23 07:57:55;;;;;;;14.90;4.53;;;;;;;;;;5027194;28;20248;-70
2023/05/23 08:00:20;;;;;;;11.27;5.07;;;;;;;;;;5025734;28;20527;-74
2023/05/23 08:02:46;;;;;;;11.50;4.18;;;;;;;;;;5031075;28;20194;-74
2023/05/23 08:05:11;;;;;;;15.65;4.28;;;;;;;;;;5039851;28;20208;-73
2023/05/23 08:07:36;;;;;;;11.30;4.35;;;;;;;;;;5026889;28;20693;-73
2023/05/23 08:10:02;;;;;;;12.15;3.47;;;;;;;;;;5034738;28;20186;-73
2023/05/23 08:12:27;;;;;;;11.93;3.88;;;;;;;;;;5028612;28;20194;-74
2023/05/23 08:14:52;;;;;;;9.57;4.18;;;;;;;;;;5032113;28;20221;-73
2023/05/23 08:17:18;;;;;;;12.00;4.40;;;;;;;;;;5035895;28;20182;-72
2023/05/23 08:19:43;;;;;;;12.00;4.35;;;;;;;;;;5029576;28;20201;-72
2023/05/23 08:22:09;;;;;;;10.52;3.90;;;;;;;;;;5025013;28;20210;-73
2023/05/23 08:24:34;;;;;;;13.15;4.38;;;;;;;;;;5026850;28;20719;-73
2023/05/23 08:27:00;;;;;;;17.55;3.95;;;;;;;;;;5046862;28;20332;-73
2023/05/23 08:29:25;;;;;;;15.40;3.63;;;;;;;;;;5042424;28;20255;-73
2023/05/23 08:31:51;;;;;;;12.95;3.90;;;;;;;;;;5028690;28;20194;-71
2023/05/23 08:34:16;;;;;;;16.58;4.63;;;;;;;;;;5016732;28;20194;-73
2023/05/23 08:36:42;;;;;;;12.70;3.33;;;;;;;;;;5032888;28;20186;-72
2023/05/23 08:39:07;;;;;;;12.63;3.30;;;;;;;;;;5046409;28;20282;-72
2023/05/23 08:41:33;;;;;;;18.17;4.07;;;;;;;;;;5015411;28;20194;-73
2023/05/23 08:43:59;;;;;;;15.65;4.20;;;;;;;;;;5028060;28;20178;-73
2023/05/23 08:46:25;;;;;;;14.18;3.70;;;;;;;;;;5042232;28;20478;-71
2023/05/23 08:48:53;;;;;;;20.10;4.13;;;;;;;;;;5034537;28;20198;-74
2023/05/23 08:51:21;;;;;;;17.27;3.95;;;;;;;;;;5028366;28;20782;-73
2023/05/23 08:53:47;;;;;;;15.65;3.13;;;;;;;;;;5022256;28;20186;-74
2023/05/23 08:56:14;;;;;;;17.25;3.85;;;;;;;;;;5034165;28;20251;-72
2023/05/23 08:58:43;;;;;;;12.15;3.20;;;;;;;;;;5046455;28;20200;-72
2023/05/23 09:01:10;;;;;;;24.23;3.75;;;;;;;;;;5028281;28;20359;-71
2023/05/23 09:03:36;;;;;;;16.20;2.92;;;;;;;;;;5028879;28;20590;-69
2023/05/23 09:06:03;;;;;;;17.42;3.45;;;;;;;;;;5024283;28;20560;-73
2023/05/23 09:08:29;;;;;;;15.05;3.95;;;;;;;;;;5024883;28;20200;-71
2023/05/23 09:10:55;;;;;;;16.67;4.10;;;;;;;;;;5026759;28;20187;-72
2023/05/23 09:13:20;;;;;;;16.88;3.60;;;;;;;;;;5027328;28;20305;-72
2023/05/23 09:16:06;;;;;;;17.73;3.75;;;;;;;;;;5025092;28;20269;-72
2023/05/23 09:18:37;;;;;;;19.00;3.53;;;;;;;;;;5014136;28;20190;-72
2023/05/23 09:21:03;;;;;;;16.23;3.28;;;;;;;;;;5028631;28;20206;-70
2023/05/23 09:23:32;;;;;;;20.60;3.42;;;;;;;;;;5030115;28;20216;-73
2023/05/23 09:26:03;;;;;;;16.75;3.28;;;;;;;;;;5027510;28;20206;-71
2023/05/23 09:28:30;;;;;;;17.98;3.38;;;;;;;;;;5016648;28;20221;-73
2023/05/23 09:31:03;;;;;;;15.50;3.05;;;;;;;;;;5026987;28;20277;-70
2023/05/23 09:33:35;;;;;;;16.05;3.40;;;;;;;;;;5014704;28;20201;-72
2023/05/23 09:36:02;;;;;;;16.10;3.10;;;;;;;;;;5023136;28;20229;-73
2023/05/23 09:38:28;;;;;;;16.33;3.97;;;;;;;;;;5019058;28;20242;-71
2023/05/23 09:40:55;;;;;;;17.70;3.20;;;;;;;;;;5016903;28;20208;-68
2023/05/23 09:43:20;;;;;;;17.17;3.28;;;;;;;;;;5030254;28;20189;-73
2023/05/23 09:45:46;;;;;;;16.65;3.50;;;;;;;;;;5026317;28;20210;-70
2023/05/23 09:48:12;;;;;;;15.52;3.10;;;;;;;;;;5030195;28;20190;-72
2023/05/23 09:50:38;;;;;;;19.65;3.63;;;;;;;;;;5014776;28;20202;-70
2023/05/23 09:53:04;;;;;;;14.55;2.92;;;;;;;;;;5020004;28;20191;-72
2023/05/23 09:55:29;;;;;;;11.20;3.22;;;;;;;;;;5008664;28;20230;-69
2023/05/23 09:57:57;;;;;;;13.77;3.67;;;;;;;;;;5021858;28;20301;-73
2023/05/23 10:00:24;;;;;;;16.05;3.40;;;;;;;;;;5022944;28;20309;-72
2023/05/23 10:03:13;;;;;;;15.70;3.30;;;;;;;;;;5019987;28;20208;-74
2023/05/23 10:05:45;;;;;;;15.27;3.10;;;;;;;;;;5014812;28;20290;-71
2023/05/23 10:08:16;;;;;;;12.80;3.63;;;;;;;;;;5027156;28;20206;-73
2023/05/23 10:11:17;;;;;;;19.38;3.72;;;;;;;;;;5027700;28;20194;-75
2023/05/23 10:13:44;;;;;;;15.30;3.35;;;;;;;;;;5018559;28;20190;-74
2023/05/23 10:16:24;;;;;;;11.55;3.15;;;;;;;;;;5013946;28;20187;-68
2023/05/23 10:18:56;;;;;;;16.17;3.22;;;;;;;;;;5022846;28;20204;-70
2023/05/23 10:21:31;;;;;;;15.85;3.05;;;;;;;;;;5018648;28;20207;-72
2023/05/23 10:23:58;;;;;;;17.83;3.50;;;;;;;;;;5032982;28;20196;-74
2023/05/23 10:26:26;;;;;;;12.60;2.83;;;;;;;;;;5026601;28;20214;-72
2023/05/23 10:28:52;;;;;;;14.68;3.38;;;;;;;;;;5018390;28;20201;-72
2023/05/23 10:31:19;;;;;;;12.05;3.45;;;;;;;;;;5020951;28;20200;-72
2023/05/23 10:33:51;;;;;;;15.95;2.95;;;;;;;;;;5017616;28;20646;-72
2023/05/23 10:36:54;;;;;;;18.35;3.67;;;;;;;;;;5021318;28;20182;-71
2023/05/23 10:39:32;;;;;;;13.13;3.53;;;;;;;;;;5025577;28;20241;-67
2023/05/23 10:42:03;;;;;;;14.75;3.40;;;;;;;;;;5028963;28;20546;-71
2023/05/23 10:44:29;;;;;;;11.82;3.10;;;;;;;;;;5028741;28;20673;-72
2023/05/23 10:47:00;;;;;;;16.25;3.53;;;;;;;;;;5037630;28;20301;-70
2023/05/23 10:49:43;;;;;;;18.60;3.60;;;;;;;;;;5029310;28;20331;-72
2023/05/23 10:52:10;;;;;;;17.20;3.78;;;;;;;;;;5033582;28;20200;-70
2023/05/23 10:54:45;;;;;;;15.45;3.85;;;;;;;;;;5033269;28;20573;-68
2023/05/23 10:57:15;;;;;;;15.20;3.78;;;;;;;;;;5043240;28;20255;-72
2023/05/23 10:59:41;;;;;;;16.05;3.72;;;;;;;;;;5025098;28;20190;-70
2023/05/23 11:02:13;;;;;;;14.68;3.45;;;;;;;;;;5027597;28;20552;-73
2023/05/23 11:04:38;;;;;;;15.18;4.25;;;;;;;;;;5031758;28;20190;-72
2023/05/23 11:07:04;;;;;;;14.88;3.92;;;;;;;;;;5016644;28;20224;-74
2023/05/23 11:09:29;;;;;;;17.30;3.17;;;;;;;;;;5031228;28;20202;-73
2023/05/23 11:12:04;;;;;;;14.90;3.80;;;;;;;;;;5035493;28;20221;-71
2023/05/23 11:14:32;;;;;;;11.60;3.15;;;;;;;;;;5035853;28;20601;-71
2023/05/23 11:17:18;;;;;;;15.80;3.22;;;;;;;;;;5049040;28;20679;-72
2023/05/23 11:20:01;;;;;;;12.88;3.28;;;;;;;;;;5043692;28;20184;-72
2023/05/23 11:22:28;;;;;;;14.45;3.10;;;;;;;;;;5019256;28;20193;-73
2023/05/23 11:24:55;;;;;;;13.57;3.03;;;;;;;;;;5030733;28;20716;-72
2023/05/23 11:27:34;;;;;;;10.10;3.00;;;;;;;;;;5024024;28;20205;-73
2023/05/23 11:30:05;;;;;;;13.77;3.22;;;;;;;;;;5030363;28;20553;-69
2023/05/23 11:32:31;;;;;;;14.02;3.55;;;;;;;;;;5024118;28;20680;-69
2023/05/23 11:35:06;;;;;;;15.82;3.55;;;;;;;;;;5030675;28;20265;-73
2023/05/23 11:37:33;;;;;;;11.13;2.55;;;;;;;;;;5018829;28;20525;-73
2023/05/23 11:40:19;;;;;;;11.90;3.03;;;;;;;;;;5036173;28;20226;-70
2023/05/23 11:42:44;;;;;;;10.20;2.40;;;;;;;;;;5039563;28;20201;-72
2023/05/23 11:45:10;;;;;;;10.38;3.22;;;;;;;;;;5030403;28;20197;-74
2023/05/23 11:47:40;;;;;;;12.57;3.00;;;;;;;;;;5037078;28;20242;-70
2023/05/23 11:50:06;;;;;;;11.52;2.53;;;;;;;;;;5030849;28;20186;-71
2023/05/23 11:52:31;;;;;;;11.93;3.35;;;;;;;;;;5025458;28;20190;-73
2023/05/23 11:55:00;;;;;;;12.88;3.03;;;;;;;;;;5031620;28;20451;-73
2023/05/23 11:57:26;;;;;;;14.35;3.15;;;;;;;;;;5040164;28;20193;-66
2023/05/23 11:59:51;;;;;;;9.95;2.50;;;;;;;;;;5033456;28;20185;-73
2023/05/23 12:02:16;;;;;;;10.20;2.38;;;;;;;;;;5038076;28;20681;-71
2023/05/23 12:04:42;;;;;;;14.68;2.58;;;;;;;;;;5028560;28;20190;-68
2023/05/23 12:07:07;;;;;;;11.25;2.70;;;;;;;;;;5028485;28;20249;-73
2023/05/23 12:09:41;;;;;;;11.50;2.97;;;;;;;;;;5028955;28;20244;-71
2023/05/23 12:12:07;;;;;;;10.27;2.67;;;;;;;;;;5027611;28;20197;-74
2023/05/23 12:14:32;;;;;;;10.65;2.60;;;;;;;;;;5027715;28;20200;-70
2023/05/23 12:16:58;;;;;;;11.48;2.85;;;;;;;;;;5025109;28;20866;-71
2023/05/23 12:19:24;;;;;;;9.88;2.15;;;;;;;;;;5024915;28;20598;-72
2023/05/23 12:21:49;;;;;;;16.38;3.13;;;;;;;;;;5026682;28;20198;-73
2023/05/23 12:24:17;;;;;;;15.43;2.58;;;;;;;;;;5021165;28;20693;-71
2023/05/23 12:26:47;;;;;;;13.52;2.95;;;;;;;;;;5020713;28;20213;-70
2023/05/23 12:29:12;;;;;;;9.57;2.35;;;;;;;;;;5024054;28;20191;-72
2023/05/23 12:31:38;;;;;;;8.45;2.30;;;;;;;;;;5026380;28;20248;-71
2023/05/23 12:34:03;;;;;;;10.00;2.53;;;;;;;;;;5023462;28;20186;-71
2023/05/23 12:36:31;;;;;;;15.60;2.75;;;;;;;;;;5028629;28;20204;-71
2023/05/23 12:39:04;;;;;;;10.75;2.80;;;;;;;;;;5042399;28;20739;-67
2023/05/23 12:41:31;;;;;;;7.63;2.75;;;;;;;;;;5034113;28;20194;-71
2023/05/23 12:43:57;;;;;;;15.60;2.95;;;;;;;;;;5029580;28;20197;-70
2023/05/23 12:46:24;;;;;;;10.50;2.55;;;;;;;;;;5043836;28;20209;-71
2023/05/23 12:48:49;;;;;;;10.60;2.63;;;;;;;;;;5016856;28;20182;-72
2023/05/23 12:51:15;;;;;;;11.93;2.92;;;;;;;;;;5018198;28;20260;-71
2023/05/23 12:53:41;;;;;;;11.80;2.38;;;;;;;;;;5025279;28;20217;-72
2023/05/23 12:56:06;;;;;;;13.20;2.55;;;;;;;;;;5011663;28;20282;-70
2023/05/23 12:58:33;;;;;;;9.13;2.80;;;;;;;;;;5010940;28;20534;-71
2023/05/23 13:00:58;;;;;;;13.85;2.72;;;;;;;;;;5022593;28;20666;-69
2023/05/23 13:03:24;;;;;;;14.15;2.40;;;;;;;;;;5019739;28;20211;-70
2023/05/23 13:05:50;;;;;;;14.73;2.38;;;;;;;;;;5019832;28;20324;-73
2023/05/23 13:08:16;;;;;;;9.48;2.40;;;;;;;;;;5022901;28;20196;-72
2023/05/23 13:10:41;;;;;;;10.55;2.88;;;;;;;;;;5027455;28;20247;-70
2023/05/23 13:13:07;;;;;;;11.15;2.63;;;;;;;;;;5028351;28;20413;-69
2023/05/23 13:15:32;;;;;;;9.57;2.70;;;;;;;;;;5026915;28;20676;-70
2023/05/23 13:17:58;;;;;;;11.70;2.50;;;;;;;;;;5027244;28;20255;-70
2023/05/23 13:20:23;;;;;;;10.90;2.58;;;;;;;;;;5027057;28;20188;-70
2023/05/23 13:22:48;;;;;;;12.45;2.47;;;;;;;;;;5027438;28;20198;-71
2023/05/23 13:25:14;;;;;;;10.68;2.60;;;;;;;;;;5026976;28;20236;-69
2023/05/23 13:27:39;;;;;;;10.55;2.33;;;;;;;;;;5039990;28;20251;-70
2023/05/23 13:30:07;;;;;;;12.90;2.75;;;;;;;;;;5029152;28;20399;-66
2023/05/23 13:32:32;;;;;;;13.57;2.60;;;;;;;;;;5028030;28;20213;-71
2023/05/23 13:34:58;;;;;;;15.85;3.47;;;;;;;;;;5025400;28;20595;-72
2023/05/23 13:37:23;;;;;;;14.35;3.05;;;;;;;;;;5040644;28;20190;-71
2023/05/23 13:39:48;;;;;;;16.60;2.70;;;;;;;;;;5026420;28;20242;-72
2023/05/23 13:42:14;;;;;;;17.80;3.90;;;;;;;;;;5029531;28;20205;-70
2023/05/23 13:44:39;;;;;;;15.95;3.85;;;;;;;;;;5026529;28;20191;-68
2023/05/23 13:47:14;;;;;;;17.08;3.38;;;;;;;;;;5036207;28;20739;-70
2023/05/23 13:49:41;;;;;;;14.23;2.55;;;;;;;;;;5030578;28;20685;-67
2023/05/23 13:52:06;;;;;;;12.50;3.20;;;;;;;;;;5015816;28;20189;-71
2023/05/23 13:54:32;;;;;;;13.45;2.70;;;;;;;;;;5026146;28;20197;-71
2023/05/23 13:56:59;;;;;;;11.15;2.33;;;;;;;;;;5029622;28;20415;-67
2023/05/23 13:59:27;;;;;;;13.35;2.17;;;;;;;;;;5018287;28;20190;-70
2023/05/23 14:01:53;;;;;;;14.15;2.42;;;;;;;;;;5021051;28;20237;-69
2023/05/23 14:04:18;;;;;;;10.70;2.70;;;;;;;;;;5026467;28;20206;-70
2023/05/23 14:06:44;;;;;;;10.93;3.10;;;;;;;;;;5019477;28;20198;-71
2023/05/23 14:09:11;;;;;;;13.43;3.20;;;;;;;;;;5025548;28;20247;-71
2023/05/23 14:11:37;;;;;;;11.27;2.30;;;;;;;;;;5028750;28;20637;-67
2023/05/23 14:14:02;;;;;;;11.45;2.40;;;;;;;;;;5027437;28;20285;-69
2023/05/23 14:16:27;;;;;;;11.63;2.35;;;;;;;;;;5032517;28;20282;-71
2023/05/23 14:18:53;;;;;;;8.95;2.13;;;;;;;;;;5027818;28;20276;-66
2023/05/23 14:21:18;;;;;;;8.65;2.67;;;;;;;;;;5025336;28;20611;-70
2023/05/23 14:23:43;;;;;;;9.20;2.28;;;;;;;;;;5027281;28;20480;-71
2023/05/23 14:26:09;;;;;;;9.25;2.40;;;;;;;;;;5037665;28;20222;-71